Time;durP1;ratioP1;P1;durP2;ratioP2;P2;SDS_P1;SDS_P2;PMS_P1;PMS_P2;Temp;Humidity;BMP_temperature;BMP_pressure;BME280_temperature;BME280_humidity;BME280_pressure;Samples;Min_cycle;Max_cycle;Signal;HPM_P1;HPM_P2
2022/05/31 00:00:22;;;;;;;4.93;2.83;;;15.40;99.90;;;;;;5031076;28;20108;-75
2022/05/31 00:02:49;;;;;;;5.13;2.70;;;15.40;99.90;;;;;;5032052;28;20088;-75
2022/05/31 00:05:15;;;;;;;5.95;2.65;;;15.40;99.90;;;;;;5037017;28;20049;-72
2022/05/31 00:07:41;;;;;;;4.28;2.58;;;15.40;99.90;;;;;;5033894;28;20048;-73
2022/05/31 00:10:10;;;;;;;5.93;2.97;;;15.40;99.90;;;;;;5036569;28;20450;-72
2022/05/31 00:12:36;;;;;;;4.75;2.75;;;15.40;99.90;;;;;;5034915;28;20029;-72
2022/05/31 00:15:03;;;;;;;6.53;2.63;;;15.50;99.90;;;;;;5033448;28;20443;-72
2022/05/31 00:17:29;;;;;;;6.93;3.05;;;15.40;99.90;;;;;;5035240;28;20029;-75
2022/05/31 00:19:54;;;;;;;5.72;2.90;;;15.50;99.90;;;;;;5033507;28;20033;-72
2022/05/31 00:22:24;;;;;;;10.23;3.30;;;15.40;99.90;;;;;;5036278;28;20033;-72
2022/05/31 00:24:50;;;;;;;7.53;3.03;;;15.40;99.90;;;;;;5030301;28;20049;-75
2022/05/31 00:27:20;;;;;;;5.38;3.00;;;15.40;99.90;;;;;;5036698;28;20045;-75
2022/05/31 00:29:47;;;;;;;7.85;3.30;;;15.40;99.90;;;;;;5031835;28;20380;-72
2022/05/31 00:32:14;;;;;;;8.95;2.92;;;15.30;99.90;;;;;;5031893;28;20033;-75
2022/05/31 00:34:44;;;;;;;5.93;3.50;;;15.30;99.90;;;;;;5029450;28;20466;-72
2022/05/31 00:37:11;;;;;;;5.05;2.55;;;15.30;99.90;;;;;;5037086;28;20018;-72
2022/05/31 00:39:37;;;;;;;7.82;3.47;;;15.30;99.90;;;;;;5032290;28;20395;-75
2022/05/31 00:42:07;;;;;;;5.28;2.88;;;15.30;99.90;;;;;;5031212;28;20029;-72
2022/05/31 00:44:34;;;;;;;4.93;2.80;;;15.30;99.90;;;;;;5029804;28;20029;-73
2022/05/31 00:47:23;;;;;;;4.85;2.78;;;15.30;99.90;;;;;;5039120;28;20032;-72
2022/05/31 00:49:58;;;;;;;6.65;2.00;;;15.40;99.90;;;;;;5027225;28;20048;-75
2022/05/31 00:52:28;;;;;;;5.28;2.60;;;15.30;99.90;;;;;;5032208;28;20025;-75
2022/05/31 00:55:21;;;;;;;6.70;3.53;;;15.30;99.90;;;;;;5032887;28;20112;-75
2022/05/31 00:58:07;;;;;;;5.40;2.75;;;15.20;99.90;;;;;;5031594;28;20508;-75
2022/05/31 01:00:37;;;;;;;13.05;3.53;;;15.30;99.90;;;;;;5028084;28;20120;-73
2022/05/31 01:03:04;;;;;;;5.97;3.28;;;15.30;99.90;;;;;;5033590;28;20061;-75
2022/05/31 01:05:30;;;;;;;6.75;3.00;;;15.40;99.90;;;;;;5025755;28;20049;-73
2022/05/31 01:07:56;;;;;;;5.28;3.20;;;15.40;99.90;;;;;;5031857;28;20037;-73
2022/05/31 01:10:21;;;;;;;5.45;2.78;;;15.40;99.90;;;;;;5031682;28;20097;-72
2022/05/31 01:12:49;;;;;;;4.63;2.85;;;15.40;99.90;;;;;;5030828;28;20030;-73
2022/05/31 01:15:16;;;;;;;6.70;3.05;;;15.30;99.90;;;;;;5030029;28;20033;-75
2022/05/31 01:17:43;;;;;;;6.75;2.72;;;15.40;99.90;;;;;;5031125;28;20040;-73
2022/05/31 01:20:16;;;;;;;5.53;2.78;;;15.30;99.90;;;;;;5031197;28;20392;-72
2022/05/31 01:22:52;;;;;;;4.35;2.40;;;15.40;99.90;;;;;;5032692;28;20108;-72
2022/05/31 01:25:18;;;;;;;6.65;2.10;;;15.40;99.90;;;;;;5030233;28;20507;-72
2022/05/31 01:28:11;;;;;;;6.85;2.40;;;15.30;99.90;;;;;;5035821;28;20041;-75
2022/05/31 01:30:50;;;;;;;7.88;2.80;;;15.30;99.90;;;;;;5029775;28;20133;-72
2022/05/31 01:33:19;;;;;;;4.57;2.22;;;15.40;99.90;;;;;;5031409;28;20057;-73
2022/05/31 01:35:45;;;;;;;4.10;2.75;;;15.50;99.90;;;;;;5033643;28;20095;-73
2022/05/31 01:38:23;;;;;;;4.35;2.58;;;15.40;99.90;;;;;;5031466;28;20116;-73
2022/05/31 01:40:52;;;;;;;5.72;2.42;;;15.30;99.90;;;;;;5025974;28;20033;-73
2022/05/31 01:43:18;;;;;;;4.95;2.05;;;15.30;99.90;;;;;;5031666;28;20040;-72
2022/05/31 01:45:51;;;;;;;3.25;1.80;;;15.30;99.90;;;;;;5033463;28;20778;-73
2022/05/31 01:48:17;;;;;;;6.50;2.53;;;15.20;99.90;;;;;;5029907;28;20121;-75
2022/05/31 01:50:45;;;;;;;4.53;2.20;;;15.20;99.90;;;;;;5030689;28;20436;-72
2022/05/31 01:53:11;;;;;;;4.22;2.00;;;15.20;99.90;;;;;;5031499;28;20037;-73
2022/05/31 01:55:40;;;;;;;4.35;1.75;;;15.30;99.90;;;;;;5031915;28;20052;-73
2022/05/31 01:58:08;;;;;;;3.95;2.13;;;15.30;99.90;;;;;;5025067;28;20022;-72
2022/05/31 02:00:34;;;;;;;5.03;2.15;;;15.20;99.90;;;;;;5027924;28;20420;-72
2022/05/31 02:03:03;;;;;;;5.10;2.30;;;15.30;99.90;;;;;;5031809;28;20037;-72
2022/05/31 02:05:29;;;;;;;5.13;2.22;;;15.30;99.90;;;;;;5029823;28;20462;-75
2022/05/31 02:07:57;;;;;;;4.45;2.50;;;14.90;99.90;;;;;;5031376;28;20037;-74
2022/05/31 02:10:24;;;;;;;3.63;1.75;;;15.00;99.90;;;;;;5029284;28;20061;-74
2022/05/31 02:12:51;;;;;;;5.10;2.10;;;15.10;99.90;;;;;;5034237;28;20691;-75
2022/05/31 02:15:18;;;;;;;6.63;2.45;;;15.10;99.90;;;;;;5033824;28;20087;-72
2022/05/31 02:17:44;;;;;;;10.23;2.50;;;15.10;99.90;;;;;;5035099;28;20397;-72
2022/05/31 02:20:10;;;;;;;5.60;2.17;;;15.20;99.90;;;;;;5032793;28;20040;-75
2022/05/31 02:22:36;;;;;;;6.47;2.03;;;15.10;99.90;;;;;;5034912;28;20480;-75
2022/05/31 02:25:02;;;;;;;4.82;1.70;;;15.00;99.90;;;;;;5032283;28;20044;-75
2022/05/31 02:27:29;;;;;;;4.03;1.73;;;15.00;99.90;;;;;;5034752;28;20136;-75
2022/05/31 02:29:55;;;;;;;3.95;1.67;;;15.10;99.90;;;;;;5032508;28;20056;-74
2022/05/31 02:32:22;;;;;;;4.43;1.90;;;15.00;99.90;;;;;;5031208;28;20063;-75
2022/05/31 02:34:49;;;;;;;5.75;1.83;;;15.00;99.90;;;;;;5036176;28;20095;-72
2022/05/31 02:37:16;;;;;;;4.60;1.88;;;15.10;99.90;;;;;;5032890;28;20456;-72
2022/05/31 02:39:42;;;;;;;3.65;1.55;;;15.10;99.90;;;;;;5035578;28;20037;-73
2022/05/31 02:42:10;;;;;;;5.03;1.45;;;15.20;99.90;;;;;;5035071;28;20423;-73
2022/05/31 02:44:37;;;;;;;6.72;1.75;;;15.20;99.90;;;;;;5034417;28;20036;-73
2022/05/31 02:47:04;;;;;;;4.95;2.00;;;15.10;99.90;;;;;;5033733;28;20050;-73
2022/05/31 02:49:29;;;;;;;4.75;1.88;;;15.00;99.90;;;;;;5031326;28;20030;-73
2022/05/31 02:51:58;;;;;;;3.83;2.13;;;15.00;99.90;;;;;;5034536;28;20095;-73
2022/05/31 02:54:24;;;;;;;5.30;2.33;;;15.00;99.90;;;;;;5037877;28;20026;-72
2022/05/31 02:56:50;;;;;;;3.30;1.80;;;15.00;99.90;;;;;;5033721;28;20041;-72
2022/05/31 02:59:16;;;;;;;5.00;1.75;;;15.00;99.90;;;;;;5036719;28;20596;-72
2022/05/31 03:01:42;;;;;;;4.30;1.63;;;15.00;99.90;;;;;;5033365;28;20033;-70
2022/05/31 03:04:09;;;;;;;3.47;1.67;;;15.00;99.90;;;;;;5032394;28;20057;-71
2022/05/31 03:06:35;;;;;;;3.55;1.63;;;15.10;99.90;;;;;;5022598;28;20128;-71
2022/05/31 03:09:02;;;;;;;2.40;1.30;;;15.10;99.90;;;;;;5029994;28;20033;-71
2022/05/31 03:11:39;;;;;;;3.60;1.55;;;14.90;99.90;;;;;;5028990;28;20057;-70
2022/05/31 03:14:07;;;;;;;5.15;1.80;;;14.90;99.90;;;;;;5028095;28;20079;-71
2022/05/31 03:16:36;;;;;;;6.20;1.83;;;14.80;99.90;;;;;;5028215;28;20029;-73
2022/05/31 03:19:06;;;;;;;3.42;1.85;;;14.90;99.90;;;;;;5024259;28;20105;-71
2022/05/31 03:21:40;;;;;;;3.65;1.45;;;14.90;99.90;;;;;;5024896;28;20029;-70
2022/05/31 03:24:24;;;;;;;3.65;1.70;;;15.00;99.90;;;;;;5024196;28;20033;-71
2022/05/31 03:26:52;;;;;;;3.67;1.73;;;14.80;99.90;;;;;;5029403;28;20750;-73
2022/05/31 03:29:17;;;;;;;3.22;1.60;;;14.90;99.90;;;;;;5028875;28;20065;-73
2022/05/31 03:31:43;;;;;;;4.38;1.90;;;14.90;99.90;;;;;;5028190;28;20522;-73
2022/05/31 03:34:09;;;;;;;5.32;1.98;;;14.90;99.90;;;;;;5025253;28;20037;-72
2022/05/31 03:36:35;;;;;;;5.22;1.85;;;14.80;99.90;;;;;;5030430;28;20050;-73
2022/05/31 03:39:01;;;;;;;4.40;2.30;;;14.50;99.90;;;;;;5029611;28;20026;-73
2022/05/31 03:41:27;;;;;;;4.90;2.10;;;14.70;99.90;;;;;;5027301;28;20067;-73
2022/05/31 03:43:53;;;;;;;9.40;2.17;;;14.80;99.90;;;;;;5025717;28;20033;-73
2022/05/31 03:46:19;;;;;;;3.22;1.63;;;14.90;99.90;;;;;;5026383;28;20050;-73
2022/05/31 03:48:44;;;;;;;3.20;1.50;;;15.00;99.90;;;;;;5037965;28;20067;-73
2022/05/31 03:51:11;;;;;;;5.47;1.92;;;15.00;99.90;;;;;;5028426;28;20036;-72
2022/05/31 03:53:37;;;;;;;6.45;1.83;;;14.70;99.90;;;;;;5029533;28;20040;-73
2022/05/31 03:56:06;;;;;;;5.60;2.47;;;14.60;99.90;;;;;;5025733;28;20033;-73
2022/05/31 03:58:32;;;;;;;3.95;1.80;;;14.50;99.90;;;;;;5029711;28;20495;-73
2022/05/31 04:00:58;;;;;;;4.32;1.70;;;14.60;99.90;;;;;;5025655;28;20124;-73
2022/05/31 04:03:25;;;;;;;3.42;1.75;;;14.60;99.90;;;;;;5026719;28;20361;-73
2022/05/31 04:05:51;;;;;;;3.83;1.85;;;14.70;99.90;;;;;;5024083;28;20041;-73
2022/05/31 04:08:19;;;;;;;4.47;1.70;;;14.60;99.90;;;;;;5027183;28;20036;-73
2022/05/31 04:10:45;;;;;;;3.72;1.88;;;14.50;99.90;;;;;;5024056;28;20558;-73
2022/05/31 04:13:12;;;;;;;4.07;2.10;;;14.50;99.90;;;;;;5024241;28;20040;-73
2022/05/31 04:15:38;;;;;;;5.63;2.45;;;14.60;99.90;;;;;;5023376;28;20029;-73
2022/05/31 04:18:04;;;;;;;4.85;2.45;;;14.70;99.90;;;;;;5027943;28;20052;-74
2022/05/31 04:20:31;;;;;;;5.55;2.17;;;14.90;99.90;;;;;;5025501;28;20040;-73
2022/05/31 04:25:41;;;;;;;;;;;14.90;99.90;;;;;;5024357;28;20064;-73
2022/05/31 04:28:07;;;;;;;2.47;1.38;;;15.10;99.90;;;;;;5030059;28;20364;-73
2022/05/31 04:30:33;;;;;;;5.35;1.85;;;15.10;99.90;;;;;;5013538;28;20527;-73
2022/05/31 04:32:58;;;;;;;4.10;1.40;;;15.20;99.90;;;;;;5026859;28;20120;-73
2022/05/31 04:35:24;;;;;;;4.40;1.50;;;15.30;99.90;;;;;;5023917;28;20030;-73
2022/05/31 04:37:50;;;;;;;5.45;2.22;;;15.30;99.90;;;;;;5029110;28;20041;-73
2022/05/31 04:40:15;;;;;;;2.85;1.60;;;15.40;99.90;;;;;;5025115;28;20377;-73
2022/05/31 04:42:42;;;;;;;6.47;1.88;;;15.30;99.90;;;;;;5028728;28;20087;-73
2022/05/31 04:45:08;;;;;;;6.40;1.75;;;15.10;99.90;;;;;;5023901;28;20029;-73
2022/05/31 04:47:34;;;;;;;3.83;1.42;;;15.20;99.90;;;;;;5025248;28;20128;-73
2022/05/31 04:50:00;;;;;;;2.78;1.38;;;15.30;99.90;;;;;;5023893;28;20116;-73
2022/05/31 04:52:26;;;;;;;2.92;1.48;;;15.30;99.90;;;;;;5026841;28;20499;-74
2022/05/31 04:54:51;;;;;;;4.15;1.58;;;15.40;99.90;;;;;;5026604;28;20036;-74
2022/05/31 04:57:17;;;;;;;2.60;1.23;;;15.30;99.90;;;;;;5028943;28;20037;-74
2022/05/31 04:59:43;;;;;;;6.15;2.13;;;15.40;99.90;;;;;;5023591;28;20655;-74
2022/05/31 05:02:10;;;;;;;3.30;1.40;;;15.40;99.90;;;;;;5030798;28;20025;-75
2022/05/31 05:04:36;;;;;;;4.47;1.67;;;15.40;99.90;;;;;;5017844;28;20128;-74
2022/05/31 05:07:02;;;;;;;2.80;1.45;;;15.50;99.90;;;;;;5028403;28;20531;-74
2022/05/31 05:09:27;;;;;;;4.30;1.50;;;15.50;99.90;;;;;;5024187;28;20629;-75
2022/05/31 05:11:53;;;;;;;3.10;1.50;;;15.60;99.90;;;;;;5027331;28;20084;-74
2022/05/31 05:14:18;;;;;;;5.85;1.40;;;15.60;99.90;;;;;;5022731;28;20038;-74
2022/05/31 05:16:44;;;;;;;2.05;1.20;;;15.60;99.90;;;;;;5017557;28;20113;-75
2022/05/31 05:19:10;;;;;;;3.45;1.33;;;15.70;99.90;;;;;;5023823;28;20045;-74
2022/05/31 05:21:35;;;;;;;5.22;2.10;;;15.70;99.90;;;;;;5020916;28;20029;-74
2022/05/31 05:24:01;;;;;;;3.15;1.33;;;15.70;99.90;;;;;;5023776;28;20079;-75
2022/05/31 05:26:27;;;;;;;4.18;1.50;;;15.80;99.90;;;;;;5027920;28;20045;-74
2022/05/31 05:31:40;;;;;;;2.58;1.23;;;15.80;99.90;;;;;;5021127;28;20047;-75
2022/05/31 05:34:05;;;;;;;3.65;1.25;;;15.60;99.90;;;;;;5024632;28;20033;-75
2022/05/31 05:36:31;;;;;;;3.70;1.20;;;15.50;99.90;;;;;;5024422;28;20036;-74
2022/05/31 05:38:57;;;;;;;2.88;1.15;;;15.50;99.90;;;;;;5018729;28;20068;-75
2022/05/31 05:41:26;;;;;;;4.78;1.30;;;15.50;99.90;;;;;;5024493;28;20033;-75
2022/05/31 05:43:52;;;;;;;2.75;1.20;;;15.60;99.90;;;;;;5024635;28;20357;-75
2022/05/31 05:46:23;;;;;;;5.22;1.48;;;15.50;99.90;;;;;;5025327;28;20048;-74
2022/05/31 05:48:49;;;;;;;5.22;1.30;;;15.60;99.90;;;;;;5027558;28;20037;-75
2022/05/31 05:51:18;;;;;;;2.97;1.50;;;15.70;99.90;;;;;;5028375;28;20025;-75
2022/05/31 05:53:44;;;;;;;4.25;1.45;;;15.80;99.90;;;;;;5027357;28;20048;-75
2022/05/31 05:56:11;;;;;;;2.45;1.13;;;15.80;99.90;;;;;;5018702;28;20033;-75
2022/05/31 05:58:37;;;;;;;2.35;1.05;;;15.70;99.90;;;;;;5027676;28;20029;-75
2022/05/31 06:01:06;;;;;;;2.13;1.00;;;15.70;99.90;;;;;;5028170;28;20022;-75
2022/05/31 06:03:38;;;;;;;2.30;1.02;;;15.80;99.90;;;;;;5025732;28;20391;-75
2022/05/31 06:06:04;;;;;;;4.18;1.45;;;15.90;99.90;;;;;;5027441;28;20046;-75
2022/05/31 06:08:49;;;;;;;2.40;1.33;;;15.90;99.90;;;;;;5025630;28;20053;-75
2022/05/31 06:11:24;;;;;;;7.60;1.48;;;15.90;99.90;;;;;;5028000;28;20041;-74
2022/05/31 06:14:02;;;;;;;6.10;1.17;;;15.90;99.90;;;;;;5021902;28;20484;-75
2022/05/31 06:16:34;;;;;;;9.40;1.27;;;15.80;99.90;;;;;;5032826;28;20053;-73
2022/05/31 06:19:13;;;;;;;2.33;1.20;;;15.80;99.90;;;;;;5029015;28;20038;-75
2022/05/31 06:21:39;;;;;;;2.47;0.88;;;15.80;99.90;;;;;;5026543;28;20069;-74
2022/05/31 06:24:05;;;;;;;1.45;0.75;;;15.80;99.90;;;;;;5027117;28;20068;-74
2022/05/31 06:26:32;;;;;;;5.25;1.02;;;15.90;99.90;;;;;;5027126;28;20065;-74
2022/05/31 06:28:57;;;;;;;3.25;0.95;;;15.90;99.90;;;;;;5021432;28;20057;-74
2022/05/31 06:31:23;;;;;;;10.45;1.23;;;15.90;99.90;;;;;;5026796;28;20044;-73
2022/05/31 06:33:49;;;;;;;3.30;1.20;;;16.00;99.90;;;;;;5026798;28;20033;-74
2022/05/31 06:36:14;;;;;;;3.47;1.50;;;16.00;99.90;;;;;;5026395;28;20040;-74
2022/05/31 06:38:41;;;;;;;2.42;1.05;;;15.90;99.90;;;;;;5025731;28;20140;-74
2022/05/31 06:41:07;;;;;;;3.00;1.23;;;16.00;99.90;;;;;;5026183;28;20838;-74
2022/05/31 06:43:34;;;;;;;1.95;0.73;;;16.20;99.90;;;;;;5026069;28;20029;-74
2022/05/31 06:46:04;;;;;;;3.33;1.23;;;16.40;99.90;;;;;;5025417;28;20032;-74
2022/05/31 06:48:30;;;;;;;5.72;1.30;;;16.50;99.90;;;;;;5025469;28;20041;-72
2022/05/31 06:50:56;;;;;;;4.85;1.30;;;16.70;99.90;;;;;;5026731;28;20075;-74
2022/05/31 06:56:48;;;;;;;3.50;1.30;;;16.80;99.90;;;;;;5026440;28;20053;-73
2022/05/31 06:59:00;;;;;;;4.07;1.38;;;16.90;99.90;;;;;;5020448;28;20037;-73
2022/05/31 07:01:31;;;;;;;6.35;1.58;;;17.00;99.90;;;;;;5022230;28;20040;-75
2022/05/31 07:03:59;;;;;;;3.55;1.50;;;17.10;99.90;;;;;;5022786;28;20163;-74
2022/05/31 07:06:25;;;;;;;5.30;1.40;;;17.30;99.90;;;;;;5023459;28;20025;-73
2022/05/31 07:08:51;;;;;;;4.63;1.25;;;17.20;99.90;;;;;;5026092;28;20067;-73
2022/05/31 07:11:17;;;;;;;2.13;1.20;;;17.10;99.90;;;;;;5020781;28;20116;-75
2022/05/31 07:13:42;;;;;;;3.03;1.40;;;17.10;99.90;;;;;;5027059;28;20026;-79
2022/05/31 07:16:08;;;;;;;47.90;6.03;;;17.10;99.90;;;;;;5026681;28;20060;-77
2022/05/31 07:18:34;;;;;;;34.80;4.35;;;17.00;99.90;;;;;;5027205;28;20033;-76
2022/05/31 07:21:01;;;;;;;3.92;1.00;;;17.00;99.90;;;;;;5016958;28;20037;-74
2022/05/31 07:23:26;;;;;;;2.40;1.25;;;17.00;99.80;;;;;;5026492;28;20553;-75
2022/05/31 07:25:52;;;;;;;2.28;1.30;;;16.90;99.50;;;;;;5025214;28;20025;-75
2022/05/31 07:28:18;;;;;;;3.40;0.90;;;16.90;99.00;;;;;;5016746;28;20052;-75
2022/05/31 07:30:44;;;;;;;3.65;1.00;;;16.90;99.00;;;;;;5024880;28;20100;-74
2022/05/31 07:33:12;;;;;;;1.85;0.88;;;16.90;98.70;;;;;;5026124;28;20132;-73
2022/05/31 07:35:41;;;;;;;3.28;1.23;;;16.90;98.50;;;;;;5026614;28;20922;-74
2022/05/31 07:38:07;;;;;;;3.03;0.57;;;16.90;98.60;;;;;;5019981;28;20041;-76
2022/05/31 07:40:34;;;;;;;1.85;0.88;;;16.90;98.40;;;;;;5025283;28;20033;-76
2022/05/31 07:43:01;;;;;;;2.35;0.95;;;17.00;98.60;;;;;;5026454;28;20472;-74
2022/05/31 07:45:27;;;;;;;4.35;0.90;;;17.20;98.60;;;;;;5025671;28;20039;-75
2022/05/31 07:47:53;;;;;;;3.70;1.00;;;17.30;98.80;;;;;;5024560;28;20037;-73
2022/05/31 07:50:19;;;;;;;3.22;1.02;;;17.40;98.80;;;;;;5023355;28;20033;-77
